Time;durP1;ratioP1;P1;durP2;ratioP2;P2;SDS_P1;SDS_P2;PMS_P1;PMS_P2;Temp;Humidity;BMP_temperature;BMP_pressure;BME280_temperature;BME280_humidity;BME280_pressure;Samples;Min_cycle;Max_cycle;Signal;HPM_P1;HPM_P2
2022/08/04 00:01:44;;;;;;;9.32;2.70;;;20.40;99.90;;;;;;5049161;28;37571;-62
2022/08/04 00:04:17;;;;;;;7.40;2.33;;;20.40;99.90;;;;;;5049230;28;38137;-63
2022/08/04 00:06:56;;;;;;;7.00;2.42;;;20.40;99.90;;;;;;5050728;28;36206;-63
2022/08/04 00:09:30;;;;;;;10.95;3.00;;;20.50;99.90;;;;;;5051276;28;38435;-63
2022/08/04 00:12:00;;;;;;;10.75;3.38;;;20.60;99.90;;;;;;5050265;28;39322;-63
2022/08/04 00:14:34;;;;;;;8.68;3.00;;;20.60;99.90;;;;;;5050524;28;36522;-62
2022/08/04 00:17:05;;;;;;;8.55;2.78;;;20.70;99.90;;;;;;5053532;28;37909;-63
2022/08/04 00:19:40;;;;;;;15.95;3.10;;;20.70;99.90;;;;;;5051998;28;36693;-62
2022/08/04 00:22:11;;;;;;;8.68;2.85;;;20.60;99.90;;;;;;5050342;28;39811;-63
2022/08/04 00:24:39;;;;;;;8.38;3.22;;;20.60;99.90;;;;;;5051149;28;37588;-62
2022/08/04 00:27:08;;;;;;;8.32;2.60;;;20.60;99.90;;;;;;5050658;28;37370;-63
2022/08/04 00:29:37;;;;;;;8.15;2.95;;;20.60;99.90;;;;;;5050119;28;36566;-63
2022/08/04 00:32:07;;;;;;;10.13;2.97;;;20.60;99.90;;;;;;5051757;28;38364;-63
2022/08/04 00:34:37;;;;;;;6.60;2.88;;;20.60;99.90;;;;;;5051412;28;40033;-62
2022/08/04 00:37:06;;;;;;;9.23;2.85;;;20.60;99.90;;;;;;5053102;28;37514;-62
2022/08/04 00:39:34;;;;;;;6.28;2.55;;;20.70;99.90;;;;;;5050751;28;35861;-63
2022/08/04 00:42:33;;;;;;;8.77;2.60;;;20.70;99.90;;;;;;5047209;28;37641;-63
2022/08/04 00:45:40;;;;;;;7.82;2.70;;;20.80;99.90;;;;;;5047446;28;40726;-63
2022/08/04 00:48:24;;;;;;;8.25;2.17;;;20.80;99.90;;;;;;5049816;28;37549;-63
2022/08/04 00:51:05;;;;;;;9.40;2.40;;;20.90;99.90;;;;;;5050688;28;39717;-63
2022/08/04 00:53:45;;;;;;;7.65;2.83;;;20.90;99.90;;;;;;5048777;28;37145;-62
2022/08/04 00:56:40;;;;;;;9.65;3.35;;;20.90;99.90;;;;;;5051340;28;20136;-63
2022/08/04 00:59:17;;;;;;;10.23;3.00;;;20.90;99.90;;;;;;5042952;28;37656;-63
2022/08/04 01:01:55;;;;;;;8.90;3.40;;;21.00;99.90;;;;;;5052280;28;36669;-63
2022/08/04 01:04:42;;;;;;;8.40;3.00;;;21.00;99.90;;;;;;5049956;28;37584;-63
2022/08/04 01:07:29;;;;;;;5.57;2.42;;;21.00;99.90;;;;;;5050536;28;39639;-63
2022/08/04 01:10:03;;;;;;;11.48;3.65;;;21.00;99.90;;;;;;5052743;28;37857;-63
2022/08/04 01:13:08;;;;;;;8.98;3.33;;;20.80;99.90;;;;;;5054132;28;37242;-63
2022/08/04 01:15:49;;;;;;;6.82;2.83;;;20.70;99.90;;;;;;5048635;28;37659;-63
2022/08/04 01:18:22;;;;;;;10.90;3.38;;;20.70;99.90;;;;;;5051230;28;37656;-63
2022/08/04 01:21:05;;;;;;;9.02;3.22;;;20.60;99.90;;;;;;5051243;28;37555;-63
2022/08/04 01:24:05;;;;;;;9.65;3.22;;;20.50;99.90;;;;;;5055159;28;36661;-63
2022/08/04 01:26:52;;;;;;;9.75;3.25;;;20.50;99.90;;;;;;5053423;28;36455;-62
2022/08/04 01:29:24;;;;;;;12.13;3.97;;;20.40;99.90;;;;;;5054450;28;38683;-62
2022/08/04 01:32:03;;;;;;;9.82;3.97;;;20.40;99.90;;;;;;5053577;28;37476;-62
2022/08/04 01:34:36;;;;;;;11.07;3.83;;;20.30;99.90;;;;;;5053482;28;36885;-63
2022/08/04 01:37:17;;;;;;;7.55;3.65;;;20.30;99.90;;;;;;5045503;28;38913;-63
2022/08/04 01:39:55;;;;;;;12.27;4.47;;;20.30;99.90;;;;;;5054035;28;38439;-62
2022/08/04 01:42:26;;;;;;;10.80;4.00;;;20.40;99.90;;;;;;5054840;28;38358;-62
2022/08/04 01:44:58;;;;;;;8.80;3.60;;;20.30;99.90;;;;;;5046378;28;36307;-63
2022/08/04 01:47:29;;;;;;;9.70;4.13;;;20.40;99.90;;;;;;5047057;28;39001;-63
2022/08/04 01:50:04;;;;;;;11.48;4.72;;;20.40;99.90;;;;;;5048002;28;37766;-62
2022/08/04 01:52:34;;;;;;;13.82;4.30;;;20.40;99.90;;;;;;5052813;28;38291;-62
2022/08/04 01:55:04;;;;;;;12.88;4.53;;;20.50;99.90;;;;;;5048457;28;35420;-62
2022/08/04 01:57:33;;;;;;;11.27;5.05;;;20.50;99.90;;;;;;5048545;28;37527;-62
2022/08/04 02:00:02;;;;;;;13.13;4.38;;;20.60;99.90;;;;;;5048348;28;37832;-62
2022/08/04 02:02:29;;;;;;;11.65;3.88;;;20.60;99.90;;;;;;5046979;28;39111;-63
2022/08/04 02:04:57;;;;;;;11.90;4.35;;;20.60;99.90;;;;;;5047889;28;37415;-63
2022/08/04 02:07:39;;;;;;;10.52;4.13;;;20.60;99.90;;;;;;5048486;28;38132;-62
2022/08/04 02:10:14;;;;;;;10.48;4.28;;;20.60;99.90;;;;;;5047460;28;40469;-62
2022/08/04 02:13:01;;;;;;;14.70;5.57;;;20.50;99.90;;;;;;5050494;28;37552;-63
2022/08/04 02:15:42;;;;;;;10.27;3.70;;;20.50;99.90;;;;;;5047670;28;35864;-63
2022/08/04 02:18:19;;;;;;;9.18;4.28;;;20.50;99.90;;;;;;5047782;28;36278;-63
2022/08/04 02:20:49;;;;;;;10.27;4.90;;;20.50;99.90;;;;;;5050054;28;36729;-62
2022/08/04 02:23:28;;;;;;;13.52;4.82;;;20.30;99.90;;;;;;5052947;28;37025;-62
2022/08/04 02:25:58;;;;;;;11.38;4.45;;;20.30;99.90;;;;;;5050214;28;35183;-63
2022/08/04 02:28:33;;;;;;;12.32;4.88;;;20.30;99.90;;;;;;5050290;28;38468;-62
2022/08/04 02:31:16;;;;;;;9.95;4.60;;;20.40;99.90;;;;;;5050913;28;38257;-62
2022/08/04 02:33:46;;;;;;;9.27;4.50;;;20.30;99.90;;;;;;5051770;28;37876;-64
2022/08/04 02:36:20;;;;;;;9.90;4.47;;;20.40;99.90;;;;;;5051723;28;36306;-62
2022/08/04 02:38:55;;;;;;;9.75;4.30;;;20.40;99.90;;;;;;5053370;28;37699;-63
2022/08/04 02:41:25;;;;;;;12.20;4.80;;;20.40;99.90;;;;;;5047925;28;39016;-63
2022/08/04 02:43:58;;;;;;;8.52;3.67;;;20.40;99.90;;;;;;5049885;28;37405;-62
2022/08/04 02:46:27;;;;;;;13.40;4.72;;;20.40;99.90;;;;;;5051641;28;36378;-62
2022/08/04 02:48:56;;;;;;;12.88;4.82;;;20.40;99.90;;;;;;5052504;28;38708;-63
2022/08/04 02:51:27;;;;;;;10.77;4.53;;;20.30;99.90;;;;;;5048815;28;37011;-62
2022/08/04 02:53:56;;;;;;;8.55;4.43;;;20.30;99.90;;;;;;5052816;28;36805;-63
2022/08/04 02:56:25;;;;;;;10.52;4.82;;;20.30;99.90;;;;;;5047112;28;35281;-63
2022/08/04 02:58:58;;;;;;;14.48;6.10;;;20.20;99.90;;;;;;5047522;28;37422;-62
2022/08/04 03:01:27;;;;;;;;;;;20.20;99.90;;;;;;5048508;28;38615;-63
2022/08/04 03:04:12;;;;;;;10.90;4.20;;;20.10;99.90;;;;;;5047373;28;37542;-63
2022/08/04 03:07:11;;;;;;;10.23;5.10;;;20.10;99.90;;;;;;5047571;28;36767;-63
2022/08/04 03:10:20;;;;;;;11.80;4.70;;;20.00;99.90;;;;;;5046420;28;39203;-62
2022/08/04 03:13:17;;;;;;;12.45;4.72;;;20.00;99.90;;;;;;5049635;28;36755;-63
2022/08/04 03:16:23;;;;;;;12.00;5.32;;;20.00;99.90;;;;;;5050253;28;37132;-63
2022/08/04 03:19:32;;;;;;;10.43;5.07;;;19.90;99.90;;;;;;5045231;28;37150;-63
2022/08/04 03:22:28;;;;;;;13.02;5.70;;;19.90;99.90;;;;;;5037702;28;40392;-62
2022/08/04 03:25:25;;;;;;;12.90;5.20;;;19.90;99.90;;;;;;5047224;28;36554;-63
2022/08/04 03:28:26;;;;;;;17.27;5.75;;;19.90;99.90;;;;;;5023316;28;39411;-63
2022/08/04 03:31:29;;;;;;;13.13;6.40;;;19.90;99.90;;;;;;5048815;28;35371;-62
2022/08/04 03:34:11;;;;;;;12.13;6.13;;;19.90;99.90;;;;;;5051380;28;37626;-62
2022/08/04 03:37:02;;;;;;;14.23;6.50;;;19.90;99.90;;;;;;5049407;28;37095;-62
2022/08/04 03:40:03;;;;;;;11.15;6.00;;;19.90;99.90;;;;;;5046675;28;38823;-62
2022/08/04 03:42:45;;;;;;;11.70;6.05;;;20.00;99.90;;;;;;5044740;28;37179;-63
2022/08/04 03:45:40;;;;;;;13.27;5.70;;;20.00;99.90;;;;;;5050625;28;38415;-62
2022/08/04 03:48:29;;;;;;;13.10;6.20;;;20.00;99.90;;;;;;5048703;28;37815;-62
2022/08/04 03:54:43;;;;;;;12.73;6.50;;;20.00;99.90;;;;;;5046597;28;37380;-63
2022/08/04 03:57:58;;;;;;;14.18;5.82;;;20.00;99.90;;;;;;5034678;28;37528;-62
2022/08/04 04:00:34;;;;;;;15.15;5.70;;;20.00;99.90;;;;;;4986824;28;37453;-62
2022/08/04 04:03:27;;;;;;;10.25;5.93;;;20.10;99.90;;;;;;5047997;28;37435;-62
2022/08/04 04:06:36;;;;;;;11.85;6.03;;;20.00;99.90;;;;;;5045150;28;36407;-62
2022/08/04 04:09:22;;;;;;;16.58;6.00;;;20.10;99.90;;;;;;5035690;28;37059;-63
2022/08/04 04:12:26;;;;;;;14.75;6.38;;;20.10;99.90;;;;;;5044818;28;38616;-62
2022/08/04 04:15:12;;;;;;;;;;;20.10;99.90;;;;;;5046744;28;37350;-62
2022/08/04 04:18:10;;;;;;;10.35;5.05;;;20.10;99.90;;;;;;5035071;28;35520;-63
2022/08/04 04:20:58;;;;;;;10.75;5.68;;;20.20;99.90;;;;;;4999303;28;38040;-64
2022/08/04 04:23:31;;;;;;;8.85;5.05;;;20.20;99.90;;;;;;5032084;28;38086;-63
2022/08/04 04:26:21;;;;;;;13.00;6.03;;;20.20;99.90;;;;;;5029964;28;36640;-62
2022/08/04 04:29:08;;;;;;;11.82;5.43;;;20.30;99.90;;;;;;5031085;28;36295;-63
2022/08/04 04:31:53;;;;;;;12.10;5.35;;;20.30;99.90;;;;;;5030331;28;37721;-63
2022/08/04 04:34:33;;;;;;;8.82;4.75;;;20.30;99.90;;;;;;5031935;28;38310;-62
2022/08/04 04:37:16;;;;;;;15.43;5.95;;;20.30;99.90;;;;;;5031874;28;37152;-63
2022/08/04 04:39:55;;;;;;;10.98;5.55;;;20.40;99.90;;;;;;5030252;28;36674;-62
2022/08/04 04:42:42;;;;;;;17.80;6.13;;;20.50;99.90;;;;;;5033300;28;37441;-62
2022/08/04 04:45:22;;;;;;;17.80;6.28;;;20.50;99.90;;;;;;5033602;28;38402;-62
2022/08/04 04:47:57;;;;;;;15.35;7.07;;;20.60;99.90;;;;;;5034012;28;36916;-63
2022/08/04 04:50:36;;;;;;;14.88;6.47;;;20.60;99.90;;;;;;5034459;28;37080;-63
2022/08/04 04:53:12;;;;;;;13.73;5.80;;;20.70;99.90;;;;;;5034388;28;39871;-62
2022/08/04 04:55:47;;;;;;;13.93;6.57;;;20.80;99.90;;;;;;5030213;28;37296;-62
2022/08/04 04:58:18;;;;;;;13.77;5.80;;;20.90;99.90;;;;;;5032933;28;37999;-62
2022/08/04 05:01:24;;;;;;;14.95;6.13;;;20.90;99.90;;;;;;5029439;28;37043;-62
2022/08/04 05:04:14;;;;;;;18.85;7.05;;;21.10;99.90;;;;;;4976434;28;39075;-62
2022/08/04 05:07:06;;;;;;;12.85;5.28;;;21.20;99.90;;;;;;5032974;28;38839;-63
2022/08/04 05:09:50;;;;;;;13.70;5.90;;;21.20;99.90;;;;;;5030012;28;38253;-63
2022/08/04 05:12:42;;;;;;;11.68;5.80;;;21.20;99.90;;;;;;5032592;28;36686;-59
2022/08/04 05:15:11;;;;;;;15.60;6.55;;;21.20;99.90;;;;;;5036054;28;37418;-58
2022/08/04 05:17:41;;;;;;;17.92;6.97;;;21.30;99.90;;;;;;5053424;28;40357;-58
2022/08/04 05:20:13;;;;;;;15.32;6.65;;;21.30;99.90;;;;;;5053168;28;36149;-59
2022/08/04 05:22:47;;;;;;;14.73;6.10;;;21.30;99.90;;;;;;5054840;28;35147;-59
2022/08/04 05:25:20;;;;;;;10.85;7.05;;;21.30;99.90;;;;;;5052324;28;36498;-59
2022/08/04 05:27:54;;;;;;;10.00;5.68;;;21.40;99.90;;;;;;5053863;28;39123;-59
2022/08/04 05:30:24;;;;;;;13.68;6.35;;;21.40;99.90;;;;;;5053883;28;37370;-59
2022/08/04 05:32:57;;;;;;;15.13;6.75;;;21.50;99.90;;;;;;5055161;28;35453;-59
2022/08/04 05:35:31;;;;;;;13.18;6.38;;;21.60;99.90;;;;;;5052902;28;39164;-59
2022/08/04 05:38:02;;;;;;;19.45;6.90;;;21.60;99.90;;;;;;5053150;28;36446;-59
2022/08/04 05:40:29;;;;;;;13.73;6.32;;;21.70;99.90;;;;;;5050610;28;37264;-59
2022/08/04 05:42:58;;;;;;;13.40;6.40;;;21.80;99.90;;;;;;5053449;28;37137;-59
2022/08/04 05:45:26;;;;;;;10.55;6.75;;;21.80;99.90;;;;;;5053014;28;38445;-58
2022/08/04 05:47:54;;;;;;;15.15;6.18;;;21.80;99.90;;;;;;5054124;28;38604;-59
2022/08/04 05:50:23;;;;;;;15.18;6.18;;;21.90;99.90;;;;;;5052712;28;37747;-59
2022/08/04 05:52:52;;;;;;;12.10;6.22;;;21.90;99.90;;;;;;5053829;28;36780;-59
2022/08/04 05:55:21;;;;;;;12.82;6.78;;;21.90;99.90;;;;;;5052591;28;37484;-59
2022/08/04 05:57:50;;;;;;;12.88;5.97;;;22.00;99.90;;;;;;5053375;28;36766;-59
2022/08/04 06:00:18;;;;;;;16.92;7.43;;;22.00;99.90;;;;;;5054151;28;36490;-59
2022/08/04 06:02:47;;;;;;;11.45;5.85;;;22.20;99.90;;;;;;5053125;28;37539;-59
2022/08/04 06:05:16;;;;;;;12.75;6.43;;;22.30;99.90;;;;;;5052156;28;37656;-59
2022/08/04 06:07:44;;;;;;;15.68;6.30;;;22.40;99.90;;;;;;5051342;28;38353;-59
2022/08/04 06:10:11;;;;;;;10.23;5.68;;;22.50;99.90;;;;;;5053204;28;36066;-59
2022/08/04 06:12:44;;;;;;;14.38;5.50;;;22.60;99.90;;;;;;5052446;28;37265;-59
2022/08/04 06:15:14;;;;;;;;;;;22.70;99.90;;;;;;5050545;28;38699;-59
2022/08/04 06:17:46;;;;;;;11.68;5.30;;;22.80;99.90;;;;;;5026395;28;37700;-59
2022/08/04 06:20:15;;;;;;;13.23;6.28;;;22.80;99.90;;;;;;5030344;28;37607;-59
2022/08/04 06:22:46;;;;;;;12.57;6.10;;;22.90;99.90;;;;;;5028468;28;35398;-59
2022/08/04 06:25:19;;;;;;;12.35;5.78;;;23.00;99.90;;;;;;5027240;28;37680;-59
2022/08/04 06:27:49;;;;;;;14.52;5.53;;;23.10;99.90;;;;;;5023099;28;37335;-59
2022/08/04 06:30:18;;;;;;;11.13;5.57;;;23.20;99.90;;;;;;5024458;28;38428;-59
2022/08/04 06:32:54;;;;;;;14.60;6.72;;;23.30;99.90;;;;;;5030040;28;36852;-59
2022/08/04 06:35:22;;;;;;;10.38;5.72;;;23.30;99.90;;;;;;5023716;28;38475;-59
2022/08/04 06:37:51;;;;;;;11.77;5.53;;;23.40;99.90;;;;;;5023549;28;38162;-59
2022/08/04 06:40:21;;;;;;;13.25;5.60;;;23.40;99.90;;;;;;5025166;28;38457;-59
2022/08/04 06:42:51;;;;;;;11.13;5.68;;;23.40;99.90;;;;;;5027218;28;36279;-59
2022/08/04 06:45:20;;;;;;;12.32;6.00;;;23.40;99.90;;;;;;5028988;28;38347;-59
2022/08/04 06:47:48;;;;;;;10.95;5.47;;;23.40;99.90;;;;;;5028965;28;38131;-59
2022/08/04 06:50:16;;;;;;;14.10;5.53;;;23.40;99.90;;;;;;5032130;28;37698;-59
2022/08/04 06:52:45;;;;;;;12.77;4.55;;;23.40;99.90;;;;;;5030823;28;37897;-59
2022/08/04 06:55:12;;;;;;;14.15;5.93;;;23.40;99.90;;;;;;5032806;28;37502;-59
2022/08/04 06:57:41;;;;;;;9.85;4.30;;;23.40;99.90;;;;;;5029527;28;36458;-59
2022/08/04 07:00:13;;;;;;;12.10;4.78;;;23.50;99.90;;;;;;5024270;28;37311;-59
2022/08/04 07:02:44;;;;;;;15.23;5.03;;;23.50;99.90;;;;;;5024249;28;36406;-59
2022/08/04 07:05:12;;;;;;;11.40;5.38;;;23.50;99.90;;;;;;5023572;28;36248;-59
2022/08/04 07:07:40;;;;;;;15.23;5.38;;;23.50;99.90;;;;;;5023462;28;37427;-59
2022/08/04 07:10:09;;;;;;;9.05;4.18;;;23.50;99.90;;;;;;5026328;28;36800;-59
2022/08/04 07:12:38;;;;;;;12.90;4.80;;;23.60;99.90;;;;;;5028476;28;36776;-59
2022/08/04 07:15:06;;;;;;;11.32;4.55;;;23.60;99.90;;;;;;5024353;28;37494;-59
2022/08/04 07:17:36;;;;;;;12.25;4.57;;;23.70;99.90;;;;;;5044766;28;36479;-59
2022/08/04 07:20:05;;;;;;;9.25;3.92;;;23.70;99.90;;;;;;5045018;28;38501;-59
2022/08/04 07:22:33;;;;;;;9.07;3.78;;;23.80;99.90;;;;;;5048852;28;36423;-59
2022/08/04 07:25:00;;;;;;;9.40;3.63;;;23.90;99.90;;;;;;5049502;28;39015;-57
2022/08/04 07:27:28;;;;;;;9.05;3.80;;;23.90;99.90;;;;;;5046826;28;37965;-59
2022/08/04 07:29:56;;;;;;;13.45;3.67;;;24.00;99.90;;;;;;5047339;28;36266;-59
2022/08/04 07:32:25;;;;;;;11.02;4.00;;;24.00;99.90;;;;;;5050030;28;37720;-59
2022/08/04 07:34:54;;;;;;;6.65;2.97;;;24.00;99.90;;;;;;5047755;28;37718;-59
2022/08/04 07:37:21;;;;;;;10.10;3.72;;;24.20;99.90;;;;;;5045558;28;38685;-59
2022/08/04 07:39:49;;;;;;;9.15;3.03;;;24.20;99.90;;;;;;5044315;28;38092;-59
2022/08/04 07:42:20;;;;;;;9.32;3.55;;;24.20;99.90;;;;;;5045181;28;36323;-59
2022/08/04 07:44:48;;;;;;;12.40;3.67;;;24.30;99.90;;;;;;5043836;28;36315;-59
2022/08/04 07:47:15;;;;;;;15.10;5.90;;;24.30;99.90;;;;;;5043654;28;36415;-59
2022/08/04 07:49:43;;;;;;;11.00;5.65;;;24.30;99.90;;;;;;5044149;28;37448;-59
2022/08/04 07:52:12;;;;;;;14.40;5.20;;;24.30;99.90;;;;;;5045708;28;37476;-59
2022/08/04 07:54:41;;;;;;;13.80;6.00;;;24.20;99.90;;;;;;5042899;28;37440;-59
2022/08/04 07:57:09;;;;;;;11.73;5.20;;;24.20;99.90;;;;;;5046782;28;38130;-59
2022/08/04 07:59:36;;;;;;;10.52;5.20;;;24.20;99.90;;;;;;5033307;28;38011;-59
2022/08/04 08:02:04;;;;;;;11.40;5.93;;;24.20;99.90;;;;;;5042524;28;36390;-59
2022/08/04 08:04:32;;;;;;;10.70;5.60;;;24.20;99.90;;;;;;5041975;28;37646;-59
2022/08/04 08:06:59;;;;;;;10.98;5.78;;;24.20;99.90;;;;;;5038687;28;38384;-59
2022/08/04 08:09:32;;;;;;;19.45;6.15;;;24.30;99.90;;;;;;5040310;28;36072;-59
2022/08/04 08:12:01;;;;;;;10.15;5.13;;;24.40;99.90;;;;;;5041405;28;36791;-59
2022/08/04 08:14:30;;;;;;;13.75;5.57;;;24.50;99.90;;;;;;5038468;28;37773;-59
2022/08/04 08:17:00;;;;;;;9.95;5.72;;;24.60;99.90;;;;;;5040941;28;37749;-59
2022/08/04 08:19:27;;;;;;;9.32;4.65;;;24.60;99.90;;;;;;5039587;28;37416;-59
2022/08/04 08:21:55;;;;;;;10.57;5.38;;;24.70;99.90;;;;;;5041122;28;35284;-59
2022/08/04 08:24:22;;;;;;;11.95;5.15;;;24.60;99.90;;;;;;5042587;28;38057;-59
2022/08/04 08:26:51;;;;;;;11.18;5.30;;;24.60;99.90;;;;;;5040145;28;38354;-59
2022/08/04 08:29:19;;;;;;;14.27;5.35;;;24.60;99.90;;;;;;5041127;28;37570;-59
2022/08/04 08:31:46;;;;;;;11.80;4.78;;;24.60;99.90;;;;;;5037782;28;36565;-59
2022/08/04 08:34:14;;;;;;;11.15;4.10;;;24.60;99.90;;;;;;5041170;28;36453;-59
2022/08/04 08:36:46;;;;;;;11.48;3.90;;;24.60;99.90;;;;;;5040444;28;40009;-59
2022/08/04 08:39:19;;;;;;;10.30;4.00;;;24.70;99.90;;;;;;5041074;28;39945;-59
2022/08/04 08:42:31;;;;;;;11.23;4.13;;;24.70;99.90;;;;;;5038952;28;36486;-59
2022/08/04 08:45:34;;;;;;;7.82;4.90;;;24.70;99.90;;;;;;5040898;28;38121;-59
2022/08/04 08:48:21;;;;;;;10.25;4.68;;;24.90;99.90;;;;;;5038803;28;39227;-59
2022/08/04 08:51:17;;;;;;;14.45;5.70;;;24.90;99.90;;;;;;5036578;28;36366;-59
2022/08/04 08:54:09;;;;;;;10.75;5.50;;;24.80;99.90;;;;;;5007502;28;35279;-59
2022/08/04 08:56:46;;;;;;;12.95;5.80;;;24.90;99.90;;;;;;5041643;28;37834;-59
2022/08/04 08:59:37;;;;;;;11.88;4.80;;;25.00;99.90;;;;;;5040401;28;36518;-59
2022/08/04 09:02:34;;;;;;;12.63;6.00;;;25.10;99.90;;;;;;5037097;28;38462;-59
2022/08/04 09:05:29;;;;;;;13.05;6.10;;;25.20;99.90;;;;;;5039758;28;36558;-59
2022/08/04 09:08:08;;;;;;;14.55;6.05;;;25.10;99.80;;;;;;5041235;28;37396;-59
2022/08/04 09:10:42;;;;;;;13.00;6.07;;;25.00;99.80;;;;;;5036102;28;36571;-59
2022/08/04 09:13:17;;;;;;;14.38;5.55;;;24.90;99.90;;;;;;5039494;28;40295;-59
2022/08/04 09:15:54;;;;;;;10.07;5.30;;;24.90;99.90;;;;;;5039489;28;35832;-59
2022/08/04 09:18:26;;;;;;;10.65;4.95;;;25.00;99.90;;;;;;5034465;28;37693;-59
2022/08/04 09:21:00;;;;;;;11.70;4.83;;;25.00;99.90;;;;;;5034607;28;37583;-59
2022/08/04 09:23:40;;;;;;;10.82;4.10;;;25.20;99.90;;;;;;5038125;28;39938;-59
2022/08/04 09:26:23;;;;;;;9.77;4.00;;;25.40;99.90;;;;;;5036715;28;37913;-59
2022/08/04 09:28:55;;;;;;;15.10;4.78;;;25.60;99.90;;;;;;5036934;28;38112;-59
2022/08/04 09:31:30;;;;;;;10.33;3.50;;;25.70;99.40;;;;;;5037367;28;37570;-59
2022/08/04 09:34:09;;;;;;;10.63;3.50;;;25.80;99.60;;;;;;5038318;28;38102;-59
2022/08/04 09:36:46;;;;;;;9.73;3.30;;;25.90;99.50;;;;;;5037035;28;36177;-59
2022/08/04 09:39:25;;;;;;;9.45;2.80;;;26.10;98.60;;;;;;5037276;28;37981;-59
2022/08/04 09:42:04;;;;;;;8.57;2.58;;;26.20;98.60;;;;;;5041064;28;36861;-58
2022/08/04 09:44:39;;;;;;;7.05;3.20;;;26.40;98.00;;;;;;5032767;28;36431;-57
2022/08/04 09:47:20;;;;;;;7.22;2.58;;;26.40;97.50;;;;;;5034813;28;35414;-58
2022/08/04 09:49:54;;;;;;;11.50;2.55;;;26.40;97.40;;;;;;5039489;28;37999;-57
2022/08/04 09:52:32;;;;;;;7.37;2.57;;;26.50;97.90;;;;;;5034760;28;38479;-57
2022/08/04 09:55:09;;;;;;;8.63;2.88;;;26.50;97.30;;;;;;5033853;28;36076;-58
2022/08/04 09:57:41;;;;;;;;;;;26.60;97.30;;;;;;5029851;28;36841;-58
2022/08/04 10:00:15;;;;;;;6.93;2.15;;;26.50;97.10;;;;;;5035394;28;37959;-58
2022/08/04 10:02:47;;;;;;;8.30;2.30;;;26.50;97.20;;;;;;5036431;28;36661;-58
2022/08/04 10:05:19;;;;;;;8.10;2.40;;;26.40;96.60;;;;;;5041162;28;38629;-64
2022/08/04 10:08:01;;;;;;;;;;;26.40;96.50;;;;;;5044759;28;37991;-58
2022/08/04 10:10:32;;;;;;;;;;;26.40;96.20;;;;;;5038945;28;38373;-59
2022/08/04 10:13:09;;;;;;;;;;;26.50;96.40;;;;;;5042682;28;38706;-58
2022/08/04 10:15:40;;;;;;;;;;;26.50;96.00;;;;;;5040914;28;39106;-63
2022/08/04 10:18:12;;;;;;;;;;;26.50;96.20;;;;;;5045358;28;35103;-63
2022/08/04 10:20:45;;;;;;;;;;;26.50;95.60;;;;;;5043125;28;39523;-63
2022/08/04 10:23:20;;;;;;;;;;;26.40;95.70;;;;;;5044878;28;39856;-63
2022/08/04 10:25:52;;;;;;;;;;;26.30;95.70;;;;;;5034870;28;37149;-58
2022/08/04 10:28:21;;;;;;;;;;;26.20;95.70;;;;;;5043146;28;36426;-58
2022/08/04 10:30:50;;;;;;;;;;;26.10;96.00;;;;;;5043929;28;37794;-64
2022/08/04 10:33:23;;;;;;;;;;;26.10;96.60;;;;;;5041671;28;37470;-59
2022/08/04 10:35:52;;;;;;;;;;;26.00;96.90;;;;;;5045763;28;37792;-64
2022/08/04 10:38:22;;;;;;;;;;;26.00;97.20;;;;;;5045248;28;36565;-64
2022/08/04 10:40:52;;;;;;;;;;;25.90;97.30;;;;;;5038538;28;34778;-59
2022/08/04 10:43:23;;;;;;;;;;;25.80;97.60;;;;;;5043472;28;38054;-64
2022/08/04 10:45:52;;;;;;;;;;;25.90;97.90;;;;;;5042388;28;36800;-63
2022/08/04 10:48:23;;;;;;;;;;;25.90;98.10;;;;;;5039871;28;38575;-63
2022/08/04 10:51:05;;;;;;;;;;;25.90;98.40;;;;;;5043008;28;37412;-62
2022/08/04 10:53:34;;;;;;;;;;;26.00;98.60;;;;;;5045654;28;38160;-59
2022/08/04 10:56:04;;;;;;;;;;;26.10;98.30;;;;;;5040972;28;37318;-59
2022/08/04 10:58:35;;;;;;;;;;;26.10;98.10;;;;;;5046392;28;36270;-59
2022/08/04 11:01:06;;;;;;;;;;;26.10;97.80;;;;;;5044444;28;37942;-63
2022/08/04 11:03:38;;;;;;;;;;;26.00;97.90;;;;;;5042620;28;37872;-59
2022/08/04 11:06:06;;;;;;;;;;;26.00;97.70;;;;;;5043350;28;37391;-63
2022/08/04 11:08:35;;;;;;;;;;;26.00;97.60;;;;;;5042823;28;36538;-64
2022/08/04 11:11:05;;;;;;;;;;;25.90;97.20;;;;;;5045095;28;37812;-64
2022/08/04 11:13:34;;;;;;;;;;;25.90;97.20;;;;;;5040248;28;37615;-63
2022/08/04 11:16:03;;;;;;;;;;;25.90;97.10;;;;;;5044363;28;35802;-64
2022/08/04 11:18:35;;;;;;;;;;;26.00;97.30;;;;;;5044977;28;38072;-64
2022/08/04 11:21:09;;;;;;;;;;;26.00;97.70;;;;;;5044272;28;37858;-63
2022/08/04 11:23:37;;;;;;;;;;;26.10;97.40;;;;;;5040309;28;37931;-63
2022/08/04 11:26:06;;;;;;;;;;;26.00;97.30;;;;;;5042398;28;37926;-63
2022/08/04 11:28:46;;;;;;;;;;;26.00;97.30;;;;;;5041067;28;37749;-63
2022/08/04 11:31:17;;;;;;;;;;;26.00;96.90;;;;;;5038328;28;38283;-63
2022/08/04 11:33:48;;;;;;;;;;;26.00;96.40;;;;;;5039030;28;36467;-63
2022/08/04 11:36:20;;;;;;;;;;;25.90;96.40;;;;;;5040512;28;37803;-59
2022/08/04 11:38:49;;;;;;;;;;;25.90;96.10;;;;;;5039683;28;35743;-58
2022/08/04 11:41:19;;;;;;;;;;;25.90;95.90;;;;;;5037343;28;37305;-63
2022/08/04 11:43:51;;;;;;;;;;;25.80;95.70;;;;;;5040405;28;38631;-63
2022/08/04 11:46:21;;;;;;;;;;;25.80;95.90;;;;;;5040085;28;37235;-59
2022/08/04 11:48:52;;;;;;;;;;;25.80;95.80;;;;;;5038421;28;35187;-59
2022/08/04 11:51:22;;;;;;;;;;;25.80;96.10;;;;;;5042018;28;37481;-59
2022/08/04 11:53:50;;;;;;;;;;;25.80;96.10;;;;;;5038242;28;38721;-63
2022/08/04 11:56:17;;;;;;;;;;;25.80;95.70;;;;;;5039636;28;36263;-63
2022/08/04 11:58:44;;;;;;;;;;;25.80;95.10;;;;;;5044430;28;35960;-63
2022/08/04 12:01:14;;;;;;;;;;;25.80;94.80;;;;;;5039909;28;39938;-59
2022/08/04 12:03:49;;;;;;;;;;;25.70;94.80;;;;;;5040064;28;40214;-64
2022/08/04 12:06:19;;;;;;;;;;;25.60;94.90;;;;;;5042635;28;38891;-59
2022/08/04 12:08:58;;;;;;;;;;;25.50;95.00;;;;;;5040240;28;36402;-59
2022/08/04 12:11:28;;;;;;;;;;;25.50;95.10;;;;;;5040689;28;37538;-59
2022/08/04 12:14:01;;;;;;;;;;;25.50;94.70;;;;;;5044705;28;37738;-59
2022/08/04 12:16:32;;;;;;;;;;;25.40;94.30;;;;;;5041579;28;39235;-64
2022/08/04 12:19:01;;;;;;;;;;;25.40;94.50;;;;;;5042883;28;36670;-59
2022/08/04 12:21:31;;;;;;;;;;;25.40;94.40;;;;;;5041746;28;36538;-64
2022/08/04 12:24:02;;;;;;;;;;;25.30;94.30;;;;;;5041208;28;38537;-64
2022/08/04 12:26:32;;;;;;;;;;;25.30;94.20;;;;;;5041826;28;36890;-60
2022/08/04 12:29:01;;;;;;;;;;;25.20;94.30;;;;;;5042134;28;36085;-64
2022/08/04 12:31:30;;;;;;;;;;;25.20;94.40;;;;;;5039650;28;37320;-64
2022/08/04 12:33:59;;;;;;;;;;;25.10;93.90;;;;;;5044542;28;37957;-59
2022/08/04 12:36:29;;;;;;;;;;;25.10;93.80;;;;;;5046371;28;37355;-59
2022/08/04 12:38:59;;;;;;;;;;;25.00;93.70;;;;;;5040802;28;36489;-59
2022/08/04 12:41:32;;;;;;;;;;;25.00;93.40;;;;;;5040912;28;37475;-60
2022/08/04 12:44:05;;;;;;;;;;;25.00;93.30;;;;;;5039586;28;38948;-59
2022/08/04 12:46:33;;;;;;;;;;;25.00;94.10;;;;;;5048854;28;39365;-59
2022/08/04 12:49:02;;;;;;;;;;;25.00;93.90;;;;;;5039883;28;36048;-64
2022/08/04 12:51:36;;;;;;;;;;;25.10;94.50;;;;;;5035390;28;37465;-64
2022/08/04 12:54:04;;;;;;;;;;;25.20;94.40;;;;;;5033423;28;36839;-65
2022/08/04 12:56:33;;;;;;;;;;;25.30;94.10;;;;;;5043017;28;36569;-59
2022/08/04 12:59:02;;;;;;;;;;;25.30;93.70;;;;;;5028378;28;37972;-64
2022/08/04 13:01:29;;;;;;;;;;;25.30;93.20;;;;;;5045966;28;39410;-64
2022/08/04 13:03:57;;;;;;;;;;;25.30;93.20;;;;;;5039108;28;38874;-59
2022/08/04 13:06:25;;;;;;;;;;;25.30;93.80;;;;;;5045309;28;37895;-59
2022/08/04 13:08:52;;;;;;;;;;;25.30;93.60;;;;;;5046094;28;36698;-59
2022/08/04 13:11:21;;;;;;;;;;;25.30;93.40;;;;;;5043503;28;39189;-64
2022/08/04 13:13:53;;;;;;;;;;;25.30;93.50;;;;;;5030096;28;37841;-64
2022/08/04 13:16:28;;;;;;;;;;;25.30;93.80;;;;;;5038961;28;36964;-59
2022/08/04 13:18:56;;;;;;;;;;;25.30;93.80;;;;;;5027925;28;37521;-64
2022/08/04 13:21:24;;;;;;;;;;;25.30;94.10;;;;;;5028795;28;36018;-64
2022/08/04 13:23:52;;;;;;;;;;;25.30;94.40;;;;;;5028553;28;36876;-59
2022/08/04 13:26:20;;;;;;;;;;;25.40;93.90;;;;;;5025542;28;34895;-64
2022/08/04 13:28:48;;;;;;;;;;;25.40;93.50;;;;;;5029507;28;41053;-59
2022/08/04 13:31:18;;;;;;;;;;;25.40;93.10;;;;;;5030449;28;38369;-59
2022/08/04 13:33:46;;;;;;;;;;;25.50;93.50;;;;;;5027569;28;36812;-60
2022/08/04 13:36:14;;;;;;;;;;;25.60;94.30;;;;;;5030480;28;35557;-65
2022/08/04 13:38:46;;;;;;;;;;;25.70;94.20;;;;;;5030069;28;36530;-64
2022/08/04 13:41:13;;;;;;;;;;;25.80;93.60;;;;;;5029174;28;37591;-64
2022/08/04 13:43:42;;;;;;;;;;;25.80;93.30;;;;;;5027626;28;37779;-64
2022/08/04 13:46:09;;;;;;;;;;;25.80;92.60;;;;;;5029018;28;37421;-64
2022/08/04 13:48:39;;;;;;;;;;;25.80;92.60;;;;;;5028396;28;35218;-59
2022/08/04 13:51:07;;;;;;;;;;;25.80;92.00;;;;;;5028807;28;39184;-59